createdAt,value
2019-01-06T00:00:46.844Z,16.00
2019-01-06T00:01:46.872Z,16.00
2019-01-06T00:02:46.828Z,16.00
2019-01-06T00:03:46.810Z,16.00
2019-01-06T00:04:46.817Z,16.00
2019-01-06T00:05:46.790Z,16.00
2019-01-06T00:06:46.782Z,16.00
2019-01-06T00:07:46.869Z,16.00
2019-01-06T00:08:46.760Z,16.00
2019-01-06T00:09:46.752Z,16.00
2019-01-06T00:10:46.743Z,16.00
2019-01-06T00:11:46.731Z,16.00
2019-01-06T00:12:46.723Z,16.00
2019-01-06T00:13:46.767Z,16.00
2019-01-06T00:14:46.699Z,16.00
2019-01-06T00:15:46.688Z,16.00
2019-01-06T00:16:46.678Z,16.00
2019-01-06T00:17:46.664Z,16.00
2019-01-06T00:18:46.658Z,16.00
2019-01-06T00:19:46.784Z,16.00
2019-01-06T00:20:46.638Z,16.00
2019-01-06T00:21:46.629Z,16.00
2019-01-06T00:22:46.618Z,16.00
2019-01-06T00:23:46.605Z,16.00
2019-01-06T00:24:46.601Z,16.00
2019-01-06T00:25:46.624Z,16.00
2019-01-06T00:26:46.575Z,16.00
2019-01-06T00:27:57.072Z,16.00
2019-01-06T00:28:46.558Z,16.00
2019-01-06T00:29:46.542Z,16.00
2019-01-06T00:30:46.536Z,16.00
2019-01-06T00:31:46.565Z,16.00
2019-01-06T00:32:46.512Z,16.00
2019-01-06T00:33:46.515Z,16.00
2019-01-06T00:34:46.494Z,16.00
2019-01-06T00:35:46.483Z,16.00
2019-01-06T00:36:46.486Z,16.00
2019-01-06T00:37:46.508Z,16.00
2019-01-06T00:38:46.453Z,16.00
2019-01-06T00:39:46.443Z,16.00
2019-01-06T00:40:46.432Z,16.00
2019-01-06T00:41:46.421Z,16.00
2019-01-06T00:42:46.413Z,16.00
2019-01-06T00:43:46.439Z,16.00
2019-01-06T00:44:46.399Z,16.00
2019-01-06T00:45:46.380Z,16.00
2019-01-06T00:46:46.370Z,16.00
2019-01-06T00:47:46.370Z,16.00
2019-01-06T00:48:46.350Z,16.00
2019-01-06T00:49:46.379Z,16.00
2019-01-06T00:50:46.329Z,16.00
2019-01-06T00:51:46.319Z,16.00
2019-01-06T00:52:46.314Z,16.00
2019-01-06T00:53:46.299Z,16.00
2019-01-06T00:54:46.285Z,16.00
2019-01-06T00:55:46.317Z,16.00
2019-01-06T00:56:46.269Z,16.00
2019-01-06T00:57:46.256Z,16.00
2019-01-06T00:58:57.016Z,16.00
2019-01-06T00:59:46.235Z,16.00
2019-01-06T01:00:46.223Z,16.00
2019-01-06T01:01:46.267Z,16.00
2019-01-06T01:02:46.202Z,16.00
2019-01-06T01:03:46.197Z,16.00
2019-01-06T01:04:46.183Z,16.00
2019-01-06T01:05:46.185Z,16.00
2019-01-06T01:06:46.165Z,16.00
2019-01-06T01:07:46.195Z,16.00
2019-01-06T01:08:46.143Z,16.00
2019-01-06T01:09:46.135Z,16.00
2019-01-06T01:10:46.131Z,16.00
2019-01-06T01:11:46.111Z,16.00
2019-01-06T01:12:46.100Z,16.00
2019-01-06T01:13:46.130Z,16.00
2019-01-06T01:14:46.095Z,16.00
2019-01-06T01:15:46.078Z,16.00
2019-01-06T01:16:46.059Z,16.00
2019-01-06T01:17:46.050Z,16.00
2019-01-06T01:18:46.041Z,16.00
2019-01-06T01:19:46.109Z,16.00
2019-01-06T01:20:46.017Z,16.00
2019-01-06T01:21:46.024Z,16.00
2019-01-06T01:22:46.001Z,16.00
2019-01-06T01:23:45.989Z,16.00
2019-01-06T01:24:45.978Z,16.00
2019-01-06T01:25:46.013Z,16.00
2019-01-06T01:26:48.455Z,16.00
2019-01-06T01:27:45.954Z,16.00
2019-01-06T01:28:45.934Z,16.00
2019-01-06T01:29:58.162Z,16.00
2019-01-06T01:30:45.917Z,16.00
2019-01-06T01:31:45.946Z,16.00
2019-01-06T01:32:45.904Z,16.00
2019-01-06T01:33:45.901Z,16.00
2019-01-06T01:34:45.877Z,16.00
2019-01-06T01:35:45.861Z,16.00
2019-01-06T01:36:45.882Z,16.00
2019-01-06T01:37:45.882Z,16.00
2019-01-06T01:38:45.832Z,16.00
2019-01-06T01:39:45.832Z,16.00
2019-01-06T01:40:45.818Z,16.00
2019-01-06T01:41:45.800Z,16.00
2019-01-06T01:42:45.794Z,16.00
2019-01-06T01:43:45.826Z,16.00
2019-01-06T01:44:45.769Z,16.00
2019-01-06T01:45:45.798Z,16.00
2019-01-06T01:46:45.750Z,16.00
2019-01-06T01:47:45.740Z,16.00
2019-01-06T01:48:45.730Z,16.00
2019-01-06T01:49:45.828Z,16.00
2019-01-06T01:50:45.709Z,16.00
2019-01-06T01:51:45.711Z,16.00
2019-01-06T01:52:45.691Z,16.00
2019-01-06T01:53:45.677Z,16.00
2019-01-06T01:54:45.668Z,16.00
2019-01-06T01:55:45.703Z,16.00
2019-01-06T01:56:45.650Z,16.00
2019-01-06T01:57:45.648Z,16.00
2019-01-06T01:58:45.625Z,16.00
2019-01-06T01:59:45.615Z,16.00
2019-01-06T02:00:56.886Z,16.00
2019-01-06T02:01:45.600Z,16.00
2019-01-06T02:02:45.590Z,16.00
2019-01-06T02:03:45.594Z,16.00
2019-01-06T02:04:45.565Z,16.00
2019-01-06T02:05:45.557Z,16.00
2019-01-06T02:06:45.715Z,16.00
2019-01-06T02:07:45.536Z,16.00
2019-01-06T02:08:45.540Z,16.00
2019-01-06T02:09:45.514Z,16.00
2019-01-06T02:10:45.505Z,16.00
2019-01-06T02:11:45.489Z,16.00
2019-01-06T02:12:45.653Z,16.00
2019-01-06T02:13:45.473Z,16.00
2019-01-06T02:14:45.459Z,16.00
2019-01-06T02:15:45.452Z,16.00
2019-01-06T02:16:45.602Z,16.00
2019-01-06T02:17:45.428Z,16.00
2019-01-06T02:18:45.457Z,16.00
2019-01-06T02:19:45.407Z,16.00
2019-01-06T02:20:45.401Z,16.00
2019-01-06T02:21:45.387Z,16.00
2019-01-06T02:22:45.386Z,16.00
2019-01-06T02:23:45.369Z,16.00
2019-01-06T02:24:45.400Z,16.00
2019-01-06T02:25:45.347Z,16.00
2019-01-06T02:26:45.414Z,16.00
2019-01-06T02:27:45.328Z,16.00
2019-01-06T02:28:45.323Z,16.00
2019-01-06T02:29:45.306Z,16.00
2019-01-06T02:30:45.338Z,16.00
2019-01-06T02:31:56.909Z,16.00
2019-01-06T02:32:45.274Z,16.00
2019-01-06T02:33:45.269Z,16.00
2019-01-06T02:34:45.277Z,16.00
2019-01-06T02:35:45.243Z,16.00
2019-01-06T02:36:45.485Z,16.00
2019-01-06T02:37:45.222Z,16.00
2019-01-06T02:38:45.227Z,16.00
2019-01-06T02:39:45.207Z,16.00
2019-01-06T02:40:45.193Z,16.00
2019-01-06T02:41:45.182Z,16.00
2019-01-06T02:42:45.214Z,16.00
2019-01-06T02:43:45.162Z,16.00
2019-01-06T02:44:45.155Z,16.00
2019-01-06T02:45:45.148Z,16.00
2019-01-06T02:46:45.145Z,16.00
2019-01-06T02:47:45.123Z,16.00
2019-01-06T02:48:45.130Z,16.00
2019-01-06T02:49:45.110Z,16.00
2019-01-06T02:50:45.088Z,16.00
2019-01-06T02:51:45.079Z,16.00
2019-01-06T02:52:45.070Z,16.00
2019-01-06T02:53:45.060Z,16.00
2019-01-06T02:54:45.101Z,16.00
2019-01-06T02:55:45.039Z,16.00
2019-01-06T02:56:45.026Z,16.00
2019-01-06T02:57:45.019Z,16.00
2019-01-06T02:58:45.008Z,16.00
2019-01-06T02:59:45.099Z,16.00
2019-01-06T03:00:45.025Z,16.00
2019-01-06T03:01:44.986Z,16.00
2019-01-06T03:02:55.368Z,16.00
2019-01-06T03:03:44.956Z,16.00
2019-01-06T03:04:44.945Z,16.00
2019-01-06T03:05:44.935Z,16.00
2019-01-06T03:06:44.981Z,16.00
2019-01-06T03:07:44.915Z,16.00
2019-01-06T03:08:44.903Z,16.00
2019-01-06T03:09:44.908Z,16.00
2019-01-06T03:10:44.880Z,16.00
2019-01-06T03:11:44.871Z,20.00
2019-01-06T03:12:44.936Z,20.00
2019-01-06T03:13:44.851Z,16.00
2019-01-06T03:14:44.841Z,16.00
2019-01-06T03:15:44.844Z,16.00
2019-01-06T03:16:44.820Z,16.00
2019-01-06T03:17:44.810Z,16.00
2019-01-06T03:18:44.820Z,16.00
2019-01-06T03:19:44.792Z,16.00
2019-01-06T03:20:44.780Z,16.00
2019-01-06T03:21:44.768Z,16.00
2019-01-06T03:22:44.799Z,16.00
2019-01-06T03:23:44.746Z,16.00
2019-01-06T03:24:44.777Z,16.00
2019-01-06T03:25:44.729Z,16.00
2019-01-06T03:26:44.717Z,16.00
2019-01-06T03:27:44.703Z,16.00
2019-01-06T03:28:44.699Z,16.00
2019-01-06T03:29:44.683Z,16.00
2019-01-06T03:30:44.884Z,16.00
2019-01-06T03:31:44.664Z,16.00
2019-01-06T03:32:44.655Z,16.00
2019-01-06T03:33:55.301Z,16.00
2019-01-06T03:34:44.633Z,16.00
2019-01-06T03:35:44.623Z,16.00
2019-01-06T03:36:44.652Z,16.00
2019-01-06T03:37:44.604Z,16.00
2019-01-06T03:38:44.600Z,16.00
2019-01-06T03:39:44.579Z,16.00
2019-01-06T03:40:44.573Z,16.00
2019-01-06T03:41:44.577Z,16.00
2019-01-06T03:42:44.588Z,16.00
2019-01-06T03:43:44.539Z,16.00
2019-01-06T03:44:44.534Z,16.00
2019-01-06T03:45:44.521Z,20.00
2019-01-06T03:46:44.515Z,16.00
2019-01-06T03:47:44.501Z,16.00
2019-01-06T03:48:44.532Z,20.00
2019-01-06T03:49:44.479Z,20.00
2019-01-06T03:50:44.465Z,16.00
2019-01-06T03:51:44.457Z,16.00
2019-01-06T03:52:44.448Z,20.00
2019-01-06T03:53:44.447Z,20.00
2019-01-06T03:54:44.477Z,16.00
2019-01-06T03:55:44.417Z,20.00
2019-01-06T03:56:44.404Z,20.00
2019-01-06T03:57:44.396Z,20.00
2019-01-06T03:58:44.382Z,20.00
2019-01-06T03:59:44.388Z,20.00
2019-01-06T04:00:44.434Z,20.00
2019-01-06T04:01:44.353Z,20.00
2019-01-06T04:02:44.343Z,20.00
2019-01-06T04:03:44.336Z,20.00
2019-01-06T04:04:55.235Z,20.00
2019-01-06T04:05:44.430Z,20.00
2019-01-06T04:06:44.408Z,20.00
2019-01-06T04:07:44.308Z,20.00
2019-01-06T04:08:44.288Z,20.00
2019-01-06T04:09:44.271Z,20.00
2019-01-06T04:10:44.272Z,20.00
2019-01-06T04:11:44.250Z,20.00
2019-01-06T04:12:44.415Z,20.00
2019-01-06T04:13:44.229Z,20.00
2019-01-06T04:14:44.219Z,20.00
2019-01-06T04:15:44.216Z,20.00
2019-01-06T04:16:44.196Z,20.00
2019-01-06T04:17:44.190Z,20.00
2019-01-06T04:18:44.218Z,20.00
2019-01-06T04:19:44.166Z,16.00
2019-01-06T04:20:44.154Z,16.00
2019-01-06T04:21:44.160Z,16.00
2019-01-06T04:22:44.243Z,20.00
2019-01-06T04:23:44.122Z,20.00
2019-01-06T04:24:44.149Z,20.00
2019-01-06T04:25:44.101Z,20.00
2019-01-06T04:26:44.094Z,20.00
2019-01-06T04:27:44.080Z,16.00
2019-01-06T04:28:44.949Z,20.00
2019-01-06T04:29:44.064Z,16.00
2019-01-06T04:30:44.090Z,20.00
2019-01-06T04:31:44.042Z,20.00
2019-01-06T04:32:44.026Z,20.00
2019-01-06T04:33:44.023Z,20.00
2019-01-06T04:34:44.028Z,20.00
2019-01-06T04:35:54.693Z,20.00
2019-01-06T04:36:43.989Z,20.00
2019-01-06T04:37:43.977Z,20.00
2019-01-06T04:38:43.965Z,16.00
2019-01-06T04:39:43.972Z,20.00
2019-01-06T04:40:43.945Z,20.00
2019-01-06T04:41:43.974Z,20.00
2019-01-06T04:42:43.928Z,20.00
2019-01-06T04:43:43.932Z,20.00
2019-01-06T04:44:43.905Z,20.00
2019-01-06T04:45:43.904Z,20.00
2019-01-06T04:46:43.884Z,20.00
2019-01-06T04:47:43.917Z,20.00
2019-01-06T04:48:43.865Z,20.00
2019-01-06T04:49:43.856Z,20.00
2019-01-06T04:50:43.861Z,20.00
2019-01-06T04:51:43.833Z,20.00
2019-01-06T04:52:43.822Z,20.00
2019-01-06T04:53:43.858Z,16.00
2019-01-06T04:54:43.800Z,16.00
2019-01-06T04:55:43.791Z,20.00
2019-01-06T04:56:43.777Z,20.00
2019-01-06T04:57:43.770Z,20.00
2019-01-06T04:58:43.777Z,20.00
2019-01-06T04:59:43.768Z,16.00
2019-01-06T05:00:43.739Z,16.00
2019-01-06T05:01:43.728Z,20.00
2019-01-06T05:02:43.719Z,20.00
2019-01-06T05:03:43.709Z,20.00
2019-01-06T05:04:43.709Z,20.00
2019-01-06T05:05:43.865Z,20.00
2019-01-06T05:06:53.818Z,20.00
2019-01-06T05:07:43.669Z,20.00
2019-01-06T05:08:43.659Z,20.00
2019-01-06T05:09:43.663Z,16.00
2019-01-06T05:10:43.634Z,16.00
2019-01-06T05:11:44.037Z,16.00
2019-01-06T05:12:43.631Z,16.00
2019-01-06T05:13:43.607Z,16.00
2019-01-06T05:14:43.595Z,16.00
2019-01-06T05:15:43.586Z,16.00
2019-01-06T05:16:43.574Z,16.00
2019-01-06T05:17:43.614Z,16.00
2019-01-06T05:18:43.552Z,16.00
2019-01-06T05:19:43.544Z,16.00
2019-01-06T05:20:43.534Z,16.00
2019-01-06T05:21:43.526Z,16.00
2019-01-06T05:22:43.521Z,16.00
2019-01-06T05:23:43.681Z,16.00
2019-01-06T05:24:43.501Z,16.00
2019-01-06T05:25:43.481Z,16.00
2019-01-06T05:26:43.472Z,16.00
2019-01-06T05:27:43.468Z,20.00
2019-01-06T05:28:43.449Z,16.00
2019-01-06T05:29:43.482Z,16.00
2019-01-06T05:30:43.445Z,16.00
2019-01-06T05:31:43.421Z,16.00
2019-01-06T05:32:43.417Z,16.00
2019-01-06T05:33:43.399Z,16.00
2019-01-06T05:34:43.390Z,16.00
2019-01-06T05:35:43.420Z,16.00
2019-01-06T05:36:43.374Z,16.00
2019-01-06T05:37:53.924Z,16.00
2019-01-06T05:38:43.349Z,16.00
2019-01-06T05:39:43.338Z,16.00
2019-01-06T05:40:43.328Z,16.00
2019-01-06T05:41:43.361Z,16.00
2019-01-06T05:42:43.303Z,16.00
2019-01-06T05:43:43.304Z,16.00
2019-01-06T05:44:43.285Z,16.00
2019-01-06T05:45:43.274Z,16.00
2019-01-06T05:46:43.261Z,16.00
2019-01-06T05:47:43.289Z,16.00
2019-01-06T05:48:43.250Z,16.00
2019-01-06T05:49:43.235Z,16.00
2019-01-06T05:50:43.222Z,16.00
2019-01-06T05:51:43.214Z,16.00
2019-01-06T05:52:43.203Z,16.00
2019-01-06T05:53:43.232Z,16.00
2019-01-06T05:54:43.183Z,16.00
2019-01-06T05:55:43.172Z,16.00
2019-01-06T05:56:43.162Z,16.00
2019-01-06T05:57:43.152Z,16.00
2019-01-06T05:58:43.137Z,20.00
2019-01-06T05:59:43.176Z,20.00
2019-01-06T06:00:43.127Z,20.00
2019-01-06T06:01:43.112Z,20.00
2019-01-06T06:02:43.099Z,20.00
2019-01-06T06:03:43.085Z,20.00
2019-01-06T06:04:43.078Z,20.00
2019-01-06T06:05:43.108Z,20.00
2019-01-06T06:06:43.065Z,20.00
2019-01-06T06:07:43.045Z,20.00
2019-01-06T06:08:53.465Z,20.00
2019-01-06T06:09:43.024Z,16.00
2019-01-06T06:10:43.016Z,16.00
2019-01-06T06:11:43.058Z,16.00
2019-01-06T06:12:42.998Z,20.00
2019-01-06T06:13:42.987Z,20.00
2019-01-06T06:14:42.983Z,20.00
2019-01-06T06:15:42.970Z,20.00
2019-01-06T06:16:42.950Z,20.00
2019-01-06T06:17:42.981Z,20.00
2019-01-06T06:18:42.929Z,20.00
2019-01-06T06:19:42.923Z,20.00
2019-01-06T06:20:42.919Z,20.00
2019-01-06T06:21:42.902Z,24.00
2019-01-06T06:22:42.891Z,20.00
2019-01-06T06:23:42.925Z,16.00
2019-01-06T06:24:42.873Z,20.00
2019-01-06T06:25:42.867Z,20.00
2019-01-06T06:26:42.855Z,20.00
2019-01-06T06:27:42.839Z,20.00
2019-01-06T06:28:42.827Z,24.00
2019-01-06T06:29:42.862Z,24.00
2019-01-06T06:30:42.810Z,24.00
2019-01-06T06:31:42.799Z,24.00
2019-01-06T06:32:42.795Z,28.00
2019-01-06T06:33:42.781Z,28.00
2019-01-06T06:34:42.767Z,28.00
2019-01-06T06:35:42.795Z,28.00
2019-01-06T06:36:42.750Z,32.00
2019-01-06T06:37:42.734Z,36.00
2019-01-06T06:38:42.739Z,36.00
2019-01-06T06:39:52.768Z,40.00
2019-01-06T06:40:42.707Z,40.00
2019-01-06T06:41:42.737Z,40.00
2019-01-06T06:42:42.705Z,44.00
2019-01-06T06:43:42.675Z,48.00
2019-01-06T06:44:42.713Z,44.00
2019-01-06T06:45:42.669Z,44.00
2019-01-06T06:46:42.646Z,52.00
2019-01-06T06:47:42.649Z,64.00
2019-01-06T06:48:42.627Z,68.00
2019-01-06T06:49:42.615Z,68.00
2019-01-06T06:50:42.610Z,64.00
2019-01-06T06:51:42.669Z,68.00
2019-01-06T06:52:42.582Z,84.00
2019-01-06T06:53:42.617Z,84.00
2019-01-06T06:54:42.564Z,96.00
2019-01-06T06:55:42.555Z,104.00
2019-01-06T06:56:42.553Z,108.00
2019-01-06T06:57:42.532Z,116.00
2019-01-06T06:58:42.521Z,128.00
2019-01-06T06:59:42.532Z,144.00
2019-01-06T07:00:42.502Z,148.00
2019-01-06T07:01:42.491Z,156.00
2019-01-06T07:02:42.496Z,164.00
2019-01-06T07:03:42.470Z,176.00
2019-01-06T07:04:42.461Z,188.00
2019-01-06T07:05:42.493Z,200.00
2019-01-06T07:06:42.439Z,216.00
2019-01-06T07:07:42.430Z,232.00
2019-01-06T07:08:42.431Z,244.00
2019-01-06T07:09:42.412Z,252.00
2019-01-06T07:10:52.626Z,264.00
2019-01-06T07:11:42.387Z,276.00
2019-01-06T07:12:42.380Z,288.00
2019-01-06T07:13:42.382Z,288.00
2019-01-06T07:14:42.360Z,300.00
2019-01-06T07:15:42.347Z,312.00
2019-01-06T07:16:42.392Z,324.00
2019-01-06T07:17:42.327Z,348.00
2019-01-06T07:18:42.318Z,368.00
2019-01-06T07:19:42.309Z,392.00
2019-01-06T07:20:42.294Z,412.00
2019-01-06T07:21:42.302Z,428.00
2019-01-06T07:22:42.377Z,452.00
2019-01-06T07:23:42.365Z,468.00
2019-01-06T07:24:42.258Z,476.00
2019-01-06T07:25:42.245Z,480.00
2019-01-06T07:26:42.233Z,492.00
2019-01-06T07:27:42.226Z,528.00
2019-01-06T07:28:42.257Z,564.00
2019-01-06T07:29:42.207Z,588.00
2019-01-06T07:30:42.215Z,612.00
2019-01-06T07:31:42.183Z,640.00
2019-01-06T07:32:42.173Z,624.00
2019-01-06T07:33:42.160Z,636.00
2019-01-06T07:34:42.192Z,652.00
2019-01-06T07:35:42.143Z,668.00
2019-01-06T07:36:42.133Z,688.00
2019-01-06T07:37:42.121Z,708.00
2019-01-06T07:38:42.114Z,724.00
2019-01-06T07:39:42.102Z,732.00
2019-01-06T07:40:42.130Z,740.00
2019-01-06T07:41:54.115Z,764.00
2019-01-06T07:42:42.072Z,796.00
2019-01-06T07:43:42.058Z,816.00
2019-01-06T07:44:42.063Z,824.00
2019-01-06T07:45:42.040Z,840.00
2019-01-06T07:46:42.072Z,868.00
2019-01-06T07:47:42.031Z,888.00
2019-01-06T07:48:42.008Z,884.00
2019-01-06T07:49:41.997Z,848.00
2019-01-06T07:50:41.987Z,816.00
2019-01-06T07:51:41.977Z,824.00
2019-01-06T07:52:42.015Z,856.00
2019-01-06T07:53:41.974Z,908.00
2019-01-06T07:54:41.951Z,944.00
2019-01-06T07:55:41.938Z,956.00
2019-01-06T07:56:41.927Z,936.00
2019-01-06T07:57:41.916Z,896.00
2019-01-06T07:58:42.093Z,888.00
2019-01-06T07:59:41.908Z,916.00
2019-01-06T08:00:41.885Z,964.00
2019-01-06T08:01:41.880Z,1004.00
2019-01-06T08:02:41.864Z,1032.00
2019-01-06T08:03:41.854Z,1052.00
2019-01-06T08:04:41.884Z,1084.00
2019-01-06T08:05:41.833Z,1116.00
2019-01-06T08:06:41.825Z,1136.00
2019-01-06T08:07:41.816Z,1164.00
2019-01-06T08:08:41.823Z,1188.00
2019-01-06T08:09:41.804Z,1204.00
2019-01-06T08:10:41.888Z,1224.00
2019-01-06T08:11:41.774Z,1240.00
2019-01-06T08:12:52.028Z,1252.00
2019-01-06T08:13:41.755Z,1252.00
2019-01-06T08:14:41.747Z,1256.00
2019-01-06T08:15:41.748Z,1264.00
2019-01-06T08:16:41.893Z,1288.00
2019-01-06T08:17:41.712Z,1308.00
2019-01-06T08:18:41.708Z,1320.00
2019-01-06T08:19:41.690Z,1300.00
2019-01-06T08:20:41.682Z,1276.00
2019-01-06T08:21:41.671Z,1276.00
2019-01-06T08:22:41.697Z,1260.00
2019-01-06T08:23:41.657Z,1244.00
2019-01-06T08:24:41.641Z,1228.00
2019-01-06T08:25:41.628Z,1224.00
2019-01-06T08:26:41.619Z,1228.00
2019-01-06T08:27:41.611Z,1244.00
2019-01-06T08:28:41.663Z,1268.00
2019-01-06T08:29:41.620Z,1268.00
2019-01-06T08:30:41.578Z,1240.00
2019-01-06T08:31:41.567Z,1224.00
2019-01-06T08:32:41.556Z,1228.00
2019-01-06T08:33:41.547Z,1252.00
2019-01-06T08:34:41.576Z,1276.00
2019-01-06T08:35:41.548Z,1304.00
2019-01-06T08:36:41.517Z,1336.00
2019-01-06T08:37:41.505Z,1368.00
2019-01-06T08:38:41.495Z,1368.00
2019-01-06T08:39:41.489Z,1352.00
2019-01-06T08:40:41.516Z,1324.00
2019-01-06T08:41:41.473Z,1308.00
2019-01-06T08:42:41.453Z,1312.00
2019-01-06T08:43:51.881Z,1352.00
2019-01-06T08:44:41.434Z,1392.00
2019-01-06T08:45:41.421Z,1412.00
2019-01-06T08:46:41.454Z,1404.00
2019-01-06T08:47:41.403Z,1388.00
2019-01-06T08:48:41.393Z,1388.00
2019-01-06T08:49:41.384Z,1388.00
2019-01-06T08:50:41.369Z,1392.00
2019-01-06T08:51:41.361Z,1388.00
2019-01-06T08:52:41.389Z,1404.00
2019-01-06T08:53:41.341Z,1444.00
2019-01-06T08:54:41.351Z,1492.00
2019-01-06T08:55:41.318Z,1556.00
2019-01-06T08:56:41.312Z,1624.00
2019-01-06T08:57:41.299Z,1684.00
2019-01-06T08:58:41.466Z,1736.00
2019-01-06T08:59:41.280Z,1780.00
2019-01-06T09:00:41.268Z,1804.00
2019-01-06T09:01:41.269Z,1828.00
2019-01-06T09:02:41.250Z,1912.00
2019-01-06T09:03:41.239Z,2032.00
2019-01-06T09:04:41.270Z,2128.00
2019-01-06T09:05:41.213Z,2180.00
2019-01-06T09:06:41.204Z,2216.00
2019-01-06T09:07:41.202Z,2280.00
2019-01-06T09:08:41.186Z,2348.00
2019-01-06T09:09:45.556Z,2396.00
2019-01-06T09:10:41.207Z,2424.00
2019-01-06T09:11:41.151Z,2452.00
2019-01-06T09:12:43.269Z,2492.00
2019-01-06T09:13:41.132Z,2552.00
2019-01-06T09:14:53.120Z,2616.00
2019-01-06T09:15:41.112Z,2668.00
2019-01-06T09:16:41.227Z,2740.00
2019-01-06T09:17:41.093Z,2792.00
2019-01-06T09:18:41.081Z,2824.00
2019-01-06T09:19:41.078Z,2828.00
2019-01-06T09:20:41.059Z,2836.00
2019-01-06T09:21:41.050Z,2832.00
2019-01-06T09:22:41.198Z,2896.00
2019-01-06T09:23:41.029Z,2916.00
2019-01-06T09:24:41.026Z,2888.00
2019-01-06T09:25:41.429Z,2840.00
2019-01-06T09:26:40.999Z,2768.00
2019-01-06T09:27:40.989Z,2728.00
2019-01-06T09:28:41.013Z,2704.00
2019-01-06T09:29:41.492Z,2672.00
2019-01-06T09:30:40.956Z,2620.00
2019-01-06T09:31:40.944Z,2560.00
2019-01-06T09:32:40.932Z,2596.00
2019-01-06T09:33:40.926Z,2680.00
2019-01-06T09:34:40.954Z,2780.00
2019-01-06T09:35:41.019Z,2864.00
2019-01-06T09:36:40.891Z,2884.00
2019-01-06T09:37:40.882Z,2896.00
2019-01-06T09:38:40.870Z,2896.00
2019-01-06T09:39:40.861Z,2868.00
2019-01-06T09:40:40.901Z,2820.00
2019-01-06T09:41:40.839Z,2804.00
2019-01-06T09:42:40.827Z,2860.00
2019-01-06T09:43:40.815Z,2912.00
2019-01-06T09:44:40.809Z,2960.00
2019-01-06T09:45:52.741Z,2992.00
2019-01-06T09:46:40.785Z,2980.00
2019-01-06T09:47:40.775Z,2976.00
2019-01-06T09:48:40.773Z,2972.00
2019-01-06T09:49:40.752Z,2936.00
2019-01-06T09:50:40.744Z,2900.00
2019-01-06T09:51:41.208Z,2876.00
2019-01-06T09:52:40.724Z,2908.00
2019-01-06T09:53:40.711Z,2964.00
2019-01-06T09:54:40.702Z,3004.00
2019-01-06T09:55:40.694Z,3008.00
2019-01-06T09:56:40.690Z,3020.00
2019-01-06T09:57:40.738Z,3032.00
2019-01-06T09:58:40.660Z,3004.00
2019-01-06T09:59:40.649Z,2980.00
2019-01-06T10:00:40.639Z,2956.00
2019-01-06T10:01:40.627Z,2924.00
2019-01-06T10:02:40.619Z,2880.00
2019-01-06T10:03:40.658Z,2844.00
2019-01-06T10:04:40.603Z,2840.00
2019-01-06T10:05:40.586Z,2840.00
2019-01-06T10:06:40.575Z,2828.00
2019-01-06T10:07:40.565Z,2836.00
2019-01-06T10:08:40.554Z,2812.00
2019-01-06T10:09:40.559Z,2768.00
2019-01-06T10:10:40.542Z,2748.00
2019-01-06T10:11:40.525Z,2748.00
2019-01-06T10:12:40.510Z,2636.00
2019-01-06T10:13:40.502Z,2736.00
2019-01-06T10:14:40.493Z,2764.00
2019-01-06T10:15:40.655Z,2740.00
2019-01-06T10:16:50.536Z,2696.00
2019-01-06T10:17:40.460Z,2672.00
2019-01-06T10:18:40.447Z,2648.00
2019-01-06T10:19:40.443Z,2604.00
2019-01-06T10:20:40.429Z,2548.00
2019-01-06T10:21:40.589Z,2528.00
2019-01-06T10:22:40.413Z,2504.00
2019-01-06T10:23:40.403Z,2432.00
2019-01-06T10:24:40.390Z,2376.00
2019-01-06T10:25:40.373Z,2376.00
2019-01-06T10:26:40.364Z,2424.00
2019-01-06T10:27:40.396Z,2488.00
2019-01-06T10:28:40.345Z,2492.00
2019-01-06T10:29:40.335Z,2544.00
2019-01-06T10:30:40.326Z,2612.00
2019-01-06T10:31:40.347Z,2668.00
2019-01-06T10:32:40.304Z,2708.00
2019-01-06T10:33:40.468Z,2728.00
2019-01-06T10:34:40.409Z,2792.00
2019-01-06T10:35:40.303Z,2852.00
2019-01-06T10:36:40.265Z,2832.00
2019-01-06T10:37:40.249Z,2816.00
2019-01-06T10:38:40.242Z,2816.00
2019-01-06T10:39:40.272Z,2832.00
2019-01-06T10:40:40.272Z,2848.00
2019-01-06T10:41:40.321Z,2848.00
2019-01-06T10:42:40.204Z,2768.00
2019-01-06T10:43:40.189Z,2788.00
2019-01-06T10:44:40.181Z,2808.00
2019-01-06T10:45:40.186Z,2840.00
2019-01-06T10:46:40.159Z,2848.00
2019-01-06T10:47:50.411Z,2856.00
2019-01-06T10:48:40.138Z,2832.00
2019-01-06T10:49:40.126Z,2804.00
2019-01-06T10:50:40.118Z,2804.00
2019-01-06T10:51:40.149Z,2796.00
2019-01-06T10:52:40.100Z,2776.00
2019-01-06T10:53:40.085Z,2748.00
2019-01-06T10:54:40.075Z,2712.00
2019-01-06T10:55:40.084Z,2708.00
2019-01-06T10:56:40.052Z,2700.00
2019-01-06T10:57:40.084Z,2712.00
2019-01-06T10:58:40.059Z,2712.00
2019-01-06T10:59:40.022Z,2724.00
2019-01-06T11:00:40.010Z,2780.00
2019-01-06T11:01:39.999Z,2856.00
2019-01-06T11:02:39.989Z,2916.00
2019-01-06T11:03:40.061Z,2988.00
2019-01-06T11:04:39.978Z,3060.00
2019-01-06T11:05:39.955Z,3120.00
2019-01-06T11:06:39.947Z,3168.00
2019-01-06T11:07:39.938Z,3232.00
2019-01-06T11:08:39.926Z,3296.00
2019-01-06T11:09:39.956Z,3340.00
2019-01-06T11:10:39.929Z,3356.00
2019-01-06T11:11:39.895Z,3368.00
2019-01-06T11:12:39.887Z,3356.00
2019-01-06T11:13:39.876Z,3340.00
2019-01-06T11:14:39.863Z,3324.00
2019-01-06T11:15:39.873Z,3300.00
2019-01-06T11:16:39.842Z,3284.00
2019-01-06T11:17:39.859Z,3300.00
2019-01-06T11:18:49.910Z,3296.00
2019-01-06T11:19:39.813Z,3292.00
2019-01-06T11:20:39.802Z,3260.00
2019-01-06T11:21:39.838Z,3232.00
2019-01-06T11:22:39.781Z,3200.00
2019-01-06T11:23:39.803Z,3152.00
2019-01-06T11:24:40.001Z,3104.00
2019-01-06T11:25:39.751Z,3040.00
2019-01-06T11:26:39.768Z,2920.00
2019-01-06T11:27:39.814Z,2756.00
2019-01-06T11:28:39.733Z,2532.00
2019-01-06T11:29:39.707Z,2340.00
2019-01-06T11:30:39.700Z,2184.00
2019-01-06T11:31:39.687Z,2096.00
2019-01-06T11:32:39.701Z,2012.00
2019-01-06T11:33:39.706Z,1912.00
2019-01-06T11:34:39.658Z,1828.00
2019-01-06T11:35:39.649Z,1760.00
2019-01-06T11:36:39.631Z,1700.00
2019-01-06T11:37:39.649Z,1652.00
2019-01-06T11:38:39.615Z,1584.00
2019-01-06T11:39:39.643Z,1524.00
2019-01-06T11:40:39.594Z,1480.00
2019-01-06T11:41:39.582Z,1444.00
2019-01-06T11:42:39.571Z,1404.00
2019-01-06T11:43:39.562Z,1368.00
2019-01-06T11:44:39.552Z,1340.00
2019-01-06T11:45:39.579Z,1324.00
2019-01-06T11:46:39.560Z,1320.00
2019-01-06T11:47:39.519Z,1316.00
2019-01-06T11:48:39.507Z,1300.00
2019-01-06T11:49:49.331Z,1280.00
2019-01-06T11:50:39.484Z,1260.00
2019-01-06T11:51:39.551Z,1236.00
2019-01-06T11:52:39.466Z,1228.00
2019-01-06T11:53:39.457Z,1216.00
2019-01-06T11:54:39.443Z,1208.00
2019-01-06T11:55:39.468Z,1196.00
2019-01-06T11:56:39.425Z,1180.00
2019-01-06T11:57:39.463Z,1156.00
2019-01-06T11:58:39.401Z,1148.00
2019-01-06T11:59:39.403Z,1136.00
2019-01-06T12:00:39.388Z,1120.00
2019-01-06T12:01:39.376Z,1116.00
2019-01-06T12:02:39.467Z,1124.00
2019-01-06T12:03:39.563Z,1148.00
2019-01-06T12:04:39.341Z,1172.00
2019-01-06T12:05:39.330Z,1188.00
2019-01-06T12:06:39.318Z,1204.00
2019-01-06T12:07:39.328Z,1212.00
2019-01-06T12:08:41.112Z,1220.00
2019-01-06T12:09:39.460Z,1232.00
2019-01-06T12:10:39.276Z,1232.00
2019-01-06T12:11:39.270Z,1232.00
2019-01-06T12:12:39.258Z,1228.00
2019-01-06T12:13:39.253Z,1208.00
2019-01-06T12:14:39.242Z,1200.00
2019-01-06T12:15:39.264Z,1176.00
2019-01-06T12:16:39.215Z,1152.00
2019-01-06T12:17:39.205Z,1128.00
2019-01-06T12:18:39.195Z,1100.00
2019-01-06T12:19:39.183Z,1080.00
2019-01-06T12:20:50.370Z,1052.00
2019-01-06T12:21:39.164Z,1024.00
2019-01-06T12:22:39.153Z,1000.00
2019-01-06T12:23:39.147Z,980.00
2019-01-06T12:24:39.139Z,964.00
2019-01-06T12:25:39.128Z,948.00
2019-01-06T12:26:39.151Z,932.00
2019-01-06T12:27:39.105Z,920.00
2019-01-06T12:28:39.089Z,900.00
2019-01-06T12:29:39.081Z,880.00
2019-01-06T12:30:39.070Z,864.00
2019-01-06T12:31:39.059Z,844.00
2019-01-06T12:32:40.869Z,828.00
2019-01-06T12:33:39.036Z,812.00